createdAt,value
2022-12-29T17:17:49.623Z,1.13
2022-12-29T17:20:22.449Z,0.80
2022-12-29T17:22:53.730Z,1.15
2022-12-29T17:25:30.217Z,1.02
2022-12-29T17:28:22.248Z,0.95
2022-12-29T17:30:51.834Z,0.90
2022-12-29T17:33:22.238Z,0.98
2022-12-29T17:35:55.244Z,1.40
2022-12-29T17:38:38.423Z,1.05
2022-12-29T17:41:15.699Z,0.80
2022-12-29T17:43:44.105Z,0.73
2022-12-29T17:46:13.360Z,0.90
2022-12-29T17:48:41.768Z,0.82
2022-12-29T17:51:13.237Z,0.80
2022-12-29T17:53:41.615Z,1.08
2022-12-29T17:56:11.174Z,0.90
2022-12-29T17:58:39.689Z,0.90
2022-12-29T18:01:08.886Z,0.65
2022-12-29T18:03:40.615Z,0.75
2022-12-29T18:06:13.293Z,1.00
2022-12-29T18:08:43.208Z,1.15
2022-12-29T18:11:26.374Z,0.73
2022-12-29T18:13:55.835Z,1.00
2022-12-29T18:16:24.877Z,0.65
2022-12-29T18:18:53.292Z,0.88
2022-12-29T18:21:24.399Z,0.90
2022-12-29T18:23:53.027Z,0.90
2022-12-29T18:26:28.859Z,0.80
2022-12-29T18:28:58.896Z,0.80
2022-12-29T18:31:32.929Z,0.85
2022-12-29T18:34:04.169Z,0.90
2022-12-29T18:36:32.793Z,0.80
2022-12-29T18:39:01.103Z,0.80
2022-12-29T18:41:31.030Z,0.82
2022-12-29T18:44:00.814Z,0.50
2022-12-29T18:46:29.867Z,0.60
2022-12-29T18:48:58.411Z,0.80
2022-12-29T18:51:27.536Z,1.00
2022-12-29T18:53:56.015Z,0.80
2022-12-29T18:56:25.412Z,0.65
2022-12-29T18:58:54.577Z,0.88
2022-12-29T19:01:32.116Z,0.95
2022-12-29T19:04:00.658Z,0.75
2022-12-29T19:06:29.070Z,0.80
2022-12-29T19:08:57.458Z,0.82
2022-12-29T19:11:26.963Z,1.13
2022-12-29T19:13:55.374Z,1.10
2022-12-29T19:16:25.954Z,1.05
2022-12-29T19:19:08.905Z,1.10
2022-12-29T19:21:38.579Z,1.00
2022-12-29T19:24:07.373Z,1.00
2022-12-29T19:26:38.894Z,0.85
2022-12-29T19:29:09.784Z,0.90
2022-12-29T19:31:39.945Z,0.70
2022-12-29T19:34:08.443Z,1.05
2022-12-29T19:36:36.823Z,1.30
2022-12-29T19:39:05.286Z,1.20
2022-12-29T19:41:33.928Z,1.27
2022-12-29T19:44:02.701Z,1.30
2022-12-29T19:46:31.232Z,1.00
2022-12-29T19:49:00.631Z,0.80
2022-12-29T19:51:29.464Z,0.80
2022-12-29T19:53:59.542Z,0.98
2022-12-29T19:56:27.994Z,0.70
2022-12-29T19:58:58.420Z,0.65
2022-12-29T20:01:27.085Z,0.77
2022-12-29T20:03:55.659Z,0.85
2022-12-29T20:06:24.155Z,0.77
2022-12-29T20:08:52.498Z,0.80
2022-12-29T20:11:20.997Z,0.80
2022-12-29T20:13:49.620Z,1.00
2022-12-29T20:16:20.323Z,0.70
2022-12-29T20:18:50.054Z,0.90
2022-12-29T20:21:21.308Z,1.15
2022-12-29T20:23:50.571Z,1.10
2022-12-29T20:26:28.455Z,0.90
2022-12-29T20:28:59.290Z,0.93
2022-12-29T20:31:31.961Z,0.75
2022-12-29T20:34:01.492Z,0.73
2022-12-29T20:36:35.089Z,0.90
2022-12-29T20:39:08.243Z,0.80
2022-12-29T20:41:37.207Z,0.30
2022-12-29T20:44:06.468Z,0.70
2022-12-29T20:46:43.010Z,0.38
2022-12-29T20:49:12.688Z,0.70
2022-12-29T20:52:05.831Z,0.60
2022-12-29T20:54:38.731Z,0.63
2022-12-29T20:57:08.858Z,0.80
2022-12-29T20:59:37.401Z,0.60
2022-12-29T21:02:06.028Z,0.50
2022-12-29T21:04:57.680Z,0.80
2022-12-29T21:07:22.960Z,0.80
2022-12-29T21:09:51.425Z,0.60
2022-12-29T21:12:19.934Z,0.70
2022-12-29T21:14:48.356Z,0.85
2022-12-29T21:17:16.777Z,0.60
2022-12-29T21:19:45.233Z,0.60
2022-12-29T21:22:13.695Z,0.57
2022-12-29T21:24:42.296Z,0.60
2022-12-29T21:27:10.782Z,0.60
2022-12-29T21:29:39.268Z,0.60
2022-12-29T21:32:07.767Z,0.60
2022-12-29T21:34:36.636Z,0.60
2022-12-29T21:37:05.207Z,0.45
2022-12-29T21:39:33.648Z,0.30
2022-12-29T21:42:03.612Z,0.45
2022-12-29T21:44:50.429Z,0.50
2022-12-29T21:47:18.811Z,0.55
2022-12-29T21:49:47.269Z,0.50
2022-12-29T21:52:16.400Z,0.50
2022-12-29T21:55:02.975Z,0.45
2022-12-29T21:57:49.839Z,0.43
2022-12-29T22:00:36.674Z,0.60
2022-12-29T22:03:23.969Z,0.80
2022-12-29T22:06:11.771Z,0.57
2022-12-29T22:08:59.287Z,0.60
2022-12-29T22:11:45.989Z,0.50
2022-12-29T22:14:14.490Z,0.50
2022-12-29T22:16:42.929Z,0.30
2022-12-29T22:19:11.929Z,0.50
2022-12-29T22:21:40.391Z,0.50
2022-12-29T22:24:09.688Z,0.50
2022-12-29T22:26:38.172Z,0.32
2022-12-29T22:29:06.593Z,0.50
2022-12-29T22:31:35.234Z,0.57
2022-12-29T22:34:05.529Z,0.55
2022-12-29T22:36:34.629Z,0.60
2022-12-29T22:39:03.125Z,0.45
2022-12-29T22:41:31.603Z,0.47
2022-12-29T22:44:00.079Z,0.55
2022-12-29T22:46:28.669Z,0.50
2022-12-29T22:48:58.993Z,0.50
2022-12-29T22:51:27.533Z,0.40
2022-12-29T22:53:55.972Z,0.50
2022-12-29T22:56:24.349Z,0.63
2022-12-29T22:58:52.821Z,0.40
2022-12-29T23:01:24.923Z,0.47
2022-12-29T23:04:05.911Z,0.40
2022-12-29T23:06:42.395Z,0.70
2022-12-29T23:09:18.374Z,0.40
2022-12-29T23:11:47.680Z,0.65
2022-12-29T23:14:17.920Z,0.70
2022-12-29T23:16:46.829Z,0.50
2022-12-29T23:19:16.173Z,0.63
2022-12-29T23:21:44.639Z,0.52
2022-12-29T23:24:15.221Z,0.50
2022-12-29T23:26:46.243Z,0.50
2022-12-29T23:29:18.555Z,0.40
2022-12-29T23:31:49.478Z,0.63
2022-12-29T23:34:18.881Z,0.57
2022-12-29T23:36:47.685Z,0.57
2022-12-29T23:39:20.933Z,0.63
2022-12-29T23:41:49.594Z,0.40
2022-12-29T23:44:17.922Z,0.55
2022-12-29T23:46:46.431Z,0.60
2022-12-29T23:49:14.887Z,0.70
2022-12-29T23:51:43.319Z,0.63
2022-12-29T23:54:11.695Z,0.63
2022-12-29T23:56:40.439Z,0.70
2022-12-29T23:59:08.809Z,0.60
